sensor_id;sensor_type;location;lat;lon;timestamp;P1;durP1;ratioP1;P2;durP2;ratioP2
6406;SDS011;3236;51.022;6.818;2024-01-07T00:00:49;64.88;;;25.48;;
6406;SDS011;3236;51.022;6.818;2024-01-07T00:03:16;77.82;;;27.58;;
6406;SDS011;3236;51.022;6.818;2024-01-07T00:05:44;80.32;;;27.67;;
6406;SDS011;3236;51.022;6.818;2024-01-07T00:08:12;77.25;;;27.88;;
6406;SDS011;3236;51.022;6.818;2024-01-07T00:10:39;81.78;;;28.35;;
6406;SDS011;3236;51.022;6.818;2024-01-07T00:13:06;74.28;;;27.50;;
6406;SDS011;3236;51.022;6.818;2024-01-07T00:15:33;74.10;;;26.08;;
6406;SDS011;3236;51.022;6.818;2024-01-07T00:18:02;68.47;;;26.30;;
6406;SDS011;3236;51.022;6.818;2024-01-07T00:20:29;72.18;;;28.10;;
6406;SDS011;3236;51.022;6.818;2024-01-07T00:22:57;77.43;;;27.35;;
6406;SDS011;3236;51.022;6.818;2024-01-07T00:25:30;75.32;;;25.80;;
6406;SDS011;3236;51.022;6.818;2024-01-07T00:27:57;76.93;;;26.95;;
6406;SDS011;3236;51.022;6.818;2024-01-07T00:30:25;73.70;;;25.70;;
6406;SDS011;3236;51.022;6.818;2024-01-07T00:32:52;81.07;;;28.02;;
6406;SDS011;3236;51.022;6.818;2024-01-07T00:35:20;77.80;;;27.92;;
6406;SDS011;3236;51.022;6.818;2024-01-07T00:37:50;70.45;;;26.48;;
6406;SDS011;3236;51.022;6.818;2024-01-07T00:40:18;69.22;;;24.85;;
6406;SDS011;3236;51.022;6.818;2024-01-07T00:42:45;64.93;;;24.10;;
6406;SDS011;3236;51.022;6.818;2024-01-07T00:45:12;65.32;;;23.02;;
6406;SDS011;3236;51.022;6.818;2024-01-07T00:47:41;55.10;;;20.20;;
6406;SDS011;3236;51.022;6.818;2024-01-07T00:50:08;45.47;;;17.70;;
6406;SDS011;3236;51.022;6.818;2024-01-07T00:52:36;52.92;;;19.48;;
6406;SDS011;3236;51.022;6.818;2024-01-07T00:55:04;44.78;;;17.65;;
6406;SDS011;3236;51.022;6.818;2024-01-07T00:57:33;44.05;;;17.83;;
6406;SDS011;3236;51.022;6.818;2024-01-07T01:00:04;41.00;;;16.95;;
6406;SDS011;3236;51.022;6.818;2024-01-07T01:02:36;42.10;;;15.88;;
6406;SDS011;3236;51.022;6.818;2024-01-07T01:05:04;36.03;;;15.18;;
6406;SDS011;3236;51.022;6.818;2024-01-07T01:07:31;39.17;;;15.88;;
6406;SDS011;3236;51.022;6.818;2024-01-07T01:10:00;39.08;;;15.95;;
6406;SDS011;3236;51.022;6.818;2024-01-07T01:12:27;35.30;;;14.75;;
6406;SDS011;3236;51.022;6.818;2024-01-07T01:14:54;37.17;;;15.00;;
6406;SDS011;3236;51.022;6.818;2024-01-07T01:17:23;37.83;;;14.90;;
6406;SDS011;3236;51.022;6.818;2024-01-07T01:19:51;30.98;;;13.43;;
6406;SDS011;3236;51.022;6.818;2024-01-07T01:22:18;34.88;;;13.82;;
6406;SDS011;3236;51.022;6.818;2024-01-07T01:24:45;30.73;;;14.13;;
6406;SDS011;3236;51.022;6.818;2024-01-07T01:27:18;30.92;;;13.35;;
6406;SDS011;3236;51.022;6.818;2024-01-07T01:32:12;32.72;;;13.10;;
6406;SDS011;3236;51.022;6.818;2024-01-07T01:34:39;30.80;;;11.98;;
6406;SDS011;3236;51.022;6.818;2024-01-07T01:37:07;29.65;;;13.27;;
6406;SDS011;3236;51.022;6.818;2024-01-07T01:39:40;31.40;;;13.52;;
6406;SDS011;3236;51.022;6.818;2024-01-07T01:42:07;31.55;;;14.10;;
6406;SDS011;3236;51.022;6.818;2024-01-07T01:44:36;30.17;;;13.27;;
6406;SDS011;3236;51.022;6.818;2024-01-07T01:47:03;30.85;;;14.55;;
6406;SDS011;3236;51.022;6.818;2024-01-07T01:49:33;30.75;;;14.38;;
6406;SDS011;3236;51.022;6.818;2024-01-07T01:52:05;26.80;;;13.45;;
6406;SDS011;3236;51.022;6.818;2024-01-07T01:54:33;25.60;;;12.48;;
6406;SDS011;3236;51.022;6.818;2024-01-07T01:57:00;31.27;;;14.50;;
6406;SDS011;3236;51.022;6.818;2024-01-07T01:59:28;30.08;;;14.68;;
6406;SDS011;3236;51.022;6.818;2024-01-07T02:01:57;33.30;;;14.38;;
6406;SDS011;3236;51.022;6.818;2024-01-07T02:04:24;30.00;;;14.23;;
6406;SDS011;3236;51.022;6.818;2024-01-07T02:06:51;28.95;;;14.95;;
6406;SDS011;3236;51.022;6.818;2024-01-07T02:09:18;32.97;;;15.45;;
6406;SDS011;3236;51.022;6.818;2024-01-07T02:11:59;27.75;;;13.38;;
6406;SDS011;3236;51.022;6.818;2024-01-07T02:16:58;31.52;;;14.85;;
6406;SDS011;3236;51.022;6.818;2024-01-07T02:19:25;28.58;;;14.43;;
6406;SDS011;3236;51.022;6.818;2024-01-07T02:21:53;32.75;;;15.68;;
6406;SDS011;3236;51.022;6.818;2024-01-07T02:24:21;34.15;;;15.75;;
6406;SDS011;3236;51.022;6.818;2024-01-07T02:26:48;33.05;;;15.65;;
6406;SDS011;3236;51.022;6.818;2024-01-07T02:29:15;29.48;;;13.77;;
6406;SDS011;3236;51.022;6.818;2024-01-07T02:31:45;35.97;;;16.98;;
6406;SDS011;3236;51.022;6.818;2024-01-07T02:34:12;33.17;;;16.30;;
6406;SDS011;3236;51.022;6.818;2024-01-07T02:36:40;34.72;;;16.60;;
6406;SDS011;3236;51.022;6.818;2024-01-07T02:39:07;33.72;;;14.60;;
6406;SDS011;3236;51.022;6.818;2024-01-07T02:41:35;30.20;;;14.05;;
6406;SDS011;3236;51.022;6.818;2024-01-07T02:44:03;36.17;;;16.25;;
6406;SDS011;3236;51.022;6.818;2024-01-07T02:46:31;36.20;;;15.23;;
6406;SDS011;3236;51.022;6.818;2024-01-07T02:48:59;35.75;;;16.70;;
6406;SDS011;3236;51.022;6.818;2024-01-07T02:51:26;35.38;;;17.08;;
6406;SDS011;3236;51.022;6.818;2024-01-07T02:53:53;31.88;;;15.18;;
6406;SDS011;3236;51.022;6.818;2024-01-07T02:56:20;32.80;;;15.77;;
6406;SDS011;3236;51.022;6.818;2024-01-07T02:58:49;30.92;;;14.35;;
6406;SDS011;3236;51.022;6.818;2024-01-07T03:01:17;28.58;;;14.95;;
6406;SDS011;3236;51.022;6.818;2024-01-07T03:03:44;30.65;;;14.77;;
6406;SDS011;3236;51.022;6.818;2024-01-07T03:06:14;28.08;;;13.80;;
6406;SDS011;3236;51.022;6.818;2024-01-07T03:08:41;33.53;;;15.43;;
6406;SDS011;3236;51.022;6.818;2024-01-07T03:11:09;30.33;;;15.95;;
6406;SDS011;3236;51.022;6.818;2024-01-07T03:13:36;29.08;;;14.43;;
6406;SDS011;3236;51.022;6.818;2024-01-07T03:16:05;31.42;;;14.93;;
6406;SDS011;3236;51.022;6.818;2024-01-07T03:18:32;29.33;;;14.27;;
6406;SDS011;3236;51.022;6.818;2024-01-07T03:20:59;32.17;;;15.85;;
6406;SDS011;3236;51.022;6.818;2024-01-07T03:23:27;31.80;;;15.13;;
6406;SDS011;3236;51.022;6.818;2024-01-07T03:25:54;29.30;;;15.40;;
6406;SDS011;3236;51.022;6.818;2024-01-07T03:28:21;33.13;;;15.55;;
6406;SDS011;3236;51.022;6.818;2024-01-07T03:30:48;38.13;;;15.65;;
6406;SDS011;3236;51.022;6.818;2024-01-07T03:33:17;25.67;;;13.63;;
6406;SDS011;3236;51.022;6.818;2024-01-07T03:35:44;34.22;;;14.82;;
6406;SDS011;3236;51.022;6.818;2024-01-07T03:38:11;26.23;;;13.55;;
6406;SDS011;3236;51.022;6.818;2024-01-07T03:40:39;35.88;;;16.13;;
6406;SDS011;3236;51.022;6.818;2024-01-07T03:43:07;31.40;;;15.65;;
6406;SDS011;3236;51.022;6.818;2024-01-07T03:45:34;37.38;;;16.02;;
6406;SDS011;3236;51.022;6.818;2024-01-07T03:48:05;37.67;;;16.13;;
6406;SDS011;3236;51.022;6.818;2024-01-07T03:50:34;36.10;;;16.67;;
6406;SDS011;3236;51.022;6.818;2024-01-07T03:53:01;38.72;;;17.25;;
6406;SDS011;3236;51.022;6.818;2024-01-07T03:55:29;34.72;;;17.27;;
6406;SDS011;3236;51.022;6.818;2024-01-07T03:57:55;33.55;;;16.73;;
6406;SDS011;3236;51.022;6.818;2024-01-07T04:00:23;38.78;;;17.27;;
6406;SDS011;3236;51.022;6.818;2024-01-07T04:02:50;31.25;;;15.18;;
6406;SDS011;3236;51.022;6.818;2024-01-07T04:05:17;34.10;;;14.95;;
6406;SDS011;3236;51.022;6.818;2024-01-07T04:07:45;37.80;;;15.00;;
6406;SDS011;3236;51.022;6.818;2024-01-07T04:10:16;44.50;;;16.58;;
6406;SDS011;3236;51.022;6.818;2024-01-07T04:12:44;40.30;;;17.38;;
6406;SDS011;3236;51.022;6.818;2024-01-07T04:15:11;43.67;;;17.95;;
6406;SDS011;3236;51.022;6.818;2024-01-07T04:17:38;47.20;;;20.48;;
6406;SDS011;3236;51.022;6.818;2024-01-07T04:20:12;49.30;;;22.30;;
6406;SDS011;3236;51.022;6.818;2024-01-07T04:22:39;46.08;;;20.75;;
6406;SDS011;3236;51.022;6.818;2024-01-07T04:25:08;43.97;;;21.02;;
6406;SDS011;3236;51.022;6.818;2024-01-07T04:27:36;50.70;;;18.65;;
6406;SDS011;3236;51.022;6.818;2024-01-07T04:30:04;40.35;;;18.27;;
6406;SDS011;3236;51.022;6.818;2024-01-07T04:32:31;41.63;;;18.65;;
6406;SDS011;3236;51.022;6.818;2024-01-07T04:35:00;44.95;;;19.25;;
6406;SDS011;3236;51.022;6.818;2024-01-07T04:37:27;47.05;;;19.38;;
6406;SDS011;3236;51.022;6.818;2024-01-07T04:39:54;40.85;;;18.23;;
6406;SDS011;3236;51.022;6.818;2024-01-07T04:42:23;47.78;;;19.92;;
6406;SDS011;3236;51.022;6.818;2024-01-07T04:44:50;39.47;;;18.33;;
6406;SDS011;3236;51.022;6.818;2024-01-07T04:47:26;38.80;;;18.13;;
6406;SDS011;3236;51.022;6.818;2024-01-07T04:49:54;47.03;;;20.55;;
6406;SDS011;3236;51.022;6.818;2024-01-07T04:52:21;40.03;;;17.80;;
6406;SDS011;3236;51.022;6.818;2024-01-07T04:54:49;35.60;;;17.20;;
6406;SDS011;3236;51.022;6.818;2024-01-07T04:57:17;37.75;;;17.02;;
6406;SDS011;3236;51.022;6.818;2024-01-07T04:59:46;38.03;;;17.27;;
6406;SDS011;3236;51.022;6.818;2024-01-07T05:02:13;33.28;;;16.17;;
6406;SDS011;3236;51.022;6.818;2024-01-07T05:04:41;37.90;;;18.13;;
6406;SDS011;3236;51.022;6.818;2024-01-07T05:07:08;32.70;;;16.17;;
6406;SDS011;3236;51.022;6.818;2024-01-07T05:09:35;42.00;;;19.50;;
6406;SDS011;3236;51.022;6.818;2024-01-07T05:12:03;36.63;;;17.63;;
6406;SDS011;3236;51.022;6.818;2024-01-07T05:14:30;38.55;;;17.77;;
6406;SDS011;3236;51.022;6.818;2024-01-07T05:16:58;36.95;;;19.25;;
6406;SDS011;3236;51.022;6.818;2024-01-07T05:19:25;38.35;;;19.15;;
6406;SDS011;3236;51.022;6.818;2024-01-07T05:21:53;39.70;;;19.65;;
6406;SDS011;3236;51.022;6.818;2024-01-07T05:24:20;47.03;;;21.55;;
6406;SDS011;3236;51.022;6.818;2024-01-07T05:26:47;46.53;;;20.73;;
6406;SDS011;3236;51.022;6.818;2024-01-07T05:29:14;43.95;;;21.52;;
6406;SDS011;3236;51.022;6.818;2024-01-07T05:31:41;48.60;;;21.90;;
6406;SDS011;3236;51.022;6.818;2024-01-07T05:34:12;43.10;;;20.88;;
6406;SDS011;3236;51.022;6.818;2024-01-07T05:36:39;40.28;;;19.50;;
6406;SDS011;3236;51.022;6.818;2024-01-07T05:39:06;39.35;;;19.13;;
6406;SDS011;3236;51.022;6.818;2024-01-07T05:41:36;31.60;;;16.40;;
6406;SDS011;3236;51.022;6.818;2024-01-07T05:44:05;33.78;;;16.98;;
6406;SDS011;3236;51.022;6.818;2024-01-07T05:46:33;33.42;;;15.50;;
6406;SDS011;3236;51.022;6.818;2024-01-07T05:49:00;30.70;;;15.88;;
6406;SDS011;3236;51.022;6.818;2024-01-07T05:51:32;29.48;;;15.38;;
6406;SDS011;3236;51.022;6.818;2024-01-07T05:53:59;29.98;;;14.48;;
6406;SDS011;3236;51.022;6.818;2024-01-07T05:56:26;21.67;;;11.25;;
6406;SDS011;3236;51.022;6.818;2024-01-07T05:58:53;29.88;;;14.75;;
6406;SDS011;3236;51.022;6.818;2024-01-07T06:01:23;25.92;;;12.88;;
6406;SDS011;3236;51.022;6.818;2024-01-07T06:03:50;30.25;;;15.27;;
6406;SDS011;3236;51.022;6.818;2024-01-07T06:06:17;32.33;;;16.13;;
6406;SDS011;3236;51.022;6.818;2024-01-07T06:08:45;32.08;;;15.77;;
6406;SDS011;3236;51.022;6.818;2024-01-07T06:11:12;35.63;;;15.55;;
6406;SDS011;3236;51.022;6.818;2024-01-07T06:13:43;28.27;;;13.98;;
6406;SDS011;3236;51.022;6.818;2024-01-07T06:16:17;31.95;;;16.30;;
6406;SDS011;3236;51.022;6.818;2024-01-07T06:18:44;27.73;;;13.85;;
6406;SDS011;3236;51.022;6.818;2024-01-07T06:21:11;30.85;;;14.80;;
6406;SDS011;3236;51.022;6.818;2024-01-07T06:23:38;34.10;;;16.00;;
6406;SDS011;3236;51.022;6.818;2024-01-07T06:26:07;32.38;;;15.98;;
6406;SDS011;3236;51.022;6.818;2024-01-07T06:28:35;35.22;;;15.75;;
6406;SDS011;3236;51.022;6.818;2024-01-07T06:31:03;35.78;;;17.42;;
6406;SDS011;3236;51.022;6.818;2024-01-07T06:33:30;36.35;;;17.10;;
6406;SDS011;3236;51.022;6.818;2024-01-07T06:35:57;36.20;;;17.58;;
6406;SDS011;3236;51.022;6.818;2024-01-07T06:38:24;33.83;;;16.75;;
6406;SDS011;3236;51.022;6.818;2024-01-07T06:40:54;31.63;;;16.88;;
6406;SDS011;3236;51.022;6.818;2024-01-07T06:43:27;29.42;;;14.70;;
6406;SDS011;3236;51.022;6.818;2024-01-07T06:45:55;38.40;;;17.67;;
6406;SDS011;3236;51.022;6.818;2024-01-07T06:48:22;33.00;;;16.20;;
6406;SDS011;3236;51.022;6.818;2024-01-07T06:50:49;23.63;;;12.27;;
6406;SDS011;3236;51.022;6.818;2024-01-07T06:53:22;30.75;;;14.63;;
6406;SDS011;3236;51.022;6.818;2024-01-07T06:55:49;39.55;;;18.10;;
6406;SDS011;3236;51.022;6.818;2024-01-07T06:58:18;39.72;;;18.15;;
6406;SDS011;3236;51.022;6.818;2024-01-07T07:00:46;36.97;;;18.17;;
6406;SDS011;3236;51.022;6.818;2024-01-07T07:03:14;38.92;;;16.73;;
6406;SDS011;3236;51.022;6.818;2024-01-07T07:05:41;33.40;;;13.80;;
6406;SDS011;3236;51.022;6.818;2024-01-07T07:08:08;32.33;;;14.10;;
6406;SDS011;3236;51.022;6.818;2024-01-07T07:10:35;32.50;;;15.65;;
6406;SDS011;3236;51.022;6.818;2024-01-07T07:13:05;35.33;;;17.75;;
6406;SDS011;3236;51.022;6.818;2024-01-07T07:15:33;31.08;;;15.10;;
6406;SDS011;3236;51.022;6.818;2024-01-07T07:18:02;35.08;;;16.83;;
6406;SDS011;3236;51.022;6.818;2024-01-07T07:20:29;32.10;;;16.77;;
6406;SDS011;3236;51.022;6.818;2024-01-07T07:22:59;32.90;;;14.13;;
6406;SDS011;3236;51.022;6.818;2024-01-07T07:25:27;29.38;;;15.27;;
6406;SDS011;3236;51.022;6.818;2024-01-07T07:27:54;34.83;;;16.42;;
6406;SDS011;3236;51.022;6.818;2024-01-07T07:30:21;29.55;;;15.43;;
6406;SDS011;3236;51.022;6.818;2024-01-07T07:32:48;33.80;;;13.88;;
6406;SDS011;3236;51.022;6.818;2024-01-07T07:35:17;25.95;;;12.85;;
6406;SDS011;3236;51.022;6.818;2024-01-07T07:37:44;35.83;;;17.33;;
6406;SDS011;3236;51.022;6.818;2024-01-07T07:40:11;34.83;;;16.67;;
6406;SDS011;3236;51.022;6.818;2024-01-07T07:42:39;30.77;;;16.00;;
6406;SDS011;3236;51.022;6.818;2024-01-07T07:45:06;31.02;;;15.40;;
6406;SDS011;3236;51.022;6.818;2024-01-07T07:47:34;29.85;;;15.07;;
6406;SDS011;3236;51.022;6.818;2024-01-07T07:50:01;32.25;;;15.60;;
6406;SDS011;3236;51.022;6.818;2024-01-07T07:52:30;31.98;;;17.35;;
6406;SDS011;3236;51.022;6.818;2024-01-07T07:54:57;34.35;;;17.65;;
6406;SDS011;3236;51.022;6.818;2024-01-07T07:57:24;30.67;;;16.70;;
6406;SDS011;3236;51.022;6.818;2024-01-07T07:59:51;36.00;;;17.30;;
6406;SDS011;3236;51.022;6.818;2024-01-07T08:02:19;32.08;;;16.83;;
6406;SDS011;3236;51.022;6.818;2024-01-07T08:04:47;32.80;;;16.00;;
6406;SDS011;3236;51.022;6.818;2024-01-07T08:07:14;24.48;;;12.60;;
6406;SDS011;3236;51.022;6.818;2024-01-07T08:09:42;27.02;;;15.45;;
6406;SDS011;3236;51.022;6.818;2024-01-07T08:12:10;33.05;;;15.02;;
6406;SDS011;3236;51.022;6.818;2024-01-07T08:14:44;27.77;;;13.00;;
6406;SDS011;3236;51.022;6.818;2024-01-07T08:17:11;23.77;;;13.18;;
6406;SDS011;3236;51.022;6.818;2024-01-07T08:19:38;35.35;;;15.02;;
6406;SDS011;3236;51.022;6.818;2024-01-07T08:22:06;32.22;;;15.82;;
6406;SDS011;3236;51.022;6.818;2024-01-07T08:24:40;33.72;;;16.00;;
6406;SDS011;3236;51.022;6.818;2024-01-07T08:27:16;31.60;;;16.05;;
6406;SDS011;3236;51.022;6.818;2024-01-07T08:29:58;31.30;;;16.30;;
6406;SDS011;3236;51.022;6.818;2024-01-07T08:32:35;33.45;;;16.50;;
6406;SDS011;3236;51.022;6.818;2024-01-07T08:35:11;28.65;;;13.68;;
6406;SDS011;3236;51.022;6.818;2024-01-07T08:37:45;32.90;;;15.93;;
6406;SDS011;3236;51.022;6.818;2024-01-07T08:40:17;27.80;;;13.32;;
6406;SDS011;3236;51.022;6.818;2024-01-07T08:42:45;24.10;;;12.32;;
6406;SDS011;3236;51.022;6.818;2024-01-07T08:45:12;28.13;;;15.75;;
6406;SDS011;3236;51.022;6.818;2024-01-07T08:47:40;31.63;;;15.15;;
6406;SDS011;3236;51.022;6.818;2024-01-07T08:50:07;30.95;;;14.73;;
6406;SDS011;3236;51.022;6.818;2024-01-07T08:52:35;31.45;;;15.02;;
6406;SDS011;3236;51.022;6.818;2024-01-07T08:55:02;22.42;;;12.27;;
6406;SDS011;3236;51.022;6.818;2024-01-07T08:57:32;29.30;;;13.73;;
6406;SDS011;3236;51.022;6.818;2024-01-07T09:00:00;19.38;;;8.60;;
6406;SDS011;3236;51.022;6.818;2024-01-07T09:02:29;26.77;;;14.25;;
6406;SDS011;3236;51.022;6.818;2024-01-07T09:04:57;28.48;;;14.50;;
6406;SDS011;3236;51.022;6.818;2024-01-07T09:07:24;36.47;;;15.73;;
6406;SDS011;3236;51.022;6.818;2024-01-07T09:09:54;28.73;;;13.15;;
6406;SDS011;3236;51.022;6.818;2024-01-07T09:12:24;37.70;;;16.17;;
6406;SDS011;3236;51.022;6.818;2024-01-07T09:14:53;26.67;;;13.65;;
6406;SDS011;3236;51.022;6.818;2024-01-07T09:17:20;30.35;;;13.93;;
6406;SDS011;3236;51.022;6.818;2024-01-07T09:19:48;32.55;;;15.30;;
6406;SDS011;3236;51.022;6.818;2024-01-07T09:22:15;29.67;;;14.93;;
6406;SDS011;3236;51.022;6.818;2024-01-07T09:24:43;29.13;;;15.00;;
6406;SDS011;3236;51.022;6.818;2024-01-07T09:27:10;27.75;;;14.25;;
6406;SDS011;3236;51.022;6.818;2024-01-07T09:29:40;27.05;;;13.80;;
6406;SDS011;3236;51.022;6.818;2024-01-07T09:32:08;25.92;;;13.13;;
6406;SDS011;3236;51.022;6.818;2024-01-07T09:34:35;32.45;;;16.48;;
6406;SDS011;3236;51.022;6.818;2024-01-07T09:37:03;29.85;;;15.48;;
6406;SDS011;3236;51.022;6.818;2024-01-07T09:39:30;25.75;;;14.95;;
6406;SDS011;3236;51.022;6.818;2024-01-07T09:41:57;31.08;;;16.63;;
6406;SDS011;3236;51.022;6.818;2024-01-07T09:44:25;29.58;;;15.77;;
6406;SDS011;3236;51.022;6.818;2024-01-07T09:46:52;25.00;;;13.02;;
6406;SDS011;3236;51.022;6.818;2024-01-07T09:49:23;23.52;;;11.10;;
6406;SDS011;3236;51.022;6.818;2024-01-07T09:51:51;25.17;;;13.70;;
6406;SDS011;3236;51.022;6.818;2024-01-07T09:54:26;20.85;;;10.80;;
6406;SDS011;3236;51.022;6.818;2024-01-07T09:56:55;20.02;;;11.50;;
6406;SDS011;3236;51.022;6.818;2024-01-07T09:59:25;21.50;;;11.30;;
6406;SDS011;3236;51.022;6.818;2024-01-07T10:01:55;19.40;;;11.07;;
6406;SDS011;3236;51.022;6.818;2024-01-07T10:04:39;20.65;;;11.68;;
6406;SDS011;3236;51.022;6.818;2024-01-07T10:07:07;16.10;;;10.20;;
6406;SDS011;3236;51.022;6.818;2024-01-07T10:09:34;15.55;;;9.30;;
6406;SDS011;3236;51.022;6.818;2024-01-07T10:12:01;16.65;;;7.85;;
6406;SDS011;3236;51.022;6.818;2024-01-07T10:14:29;18.15;;;8.57;;
6406;SDS011;3236;51.022;6.818;2024-01-07T10:16:56;16.15;;;9.13;;
6406;SDS011;3236;51.022;6.818;2024-01-07T10:19:23;19.75;;;9.60;;
6406;SDS011;3236;51.022;6.818;2024-01-07T10:22:02;17.30;;;9.75;;
6406;SDS011;3236;51.022;6.818;2024-01-07T10:24:36;16.48;;;9.45;;
6406;SDS011;3236;51.022;6.818;2024-01-07T10:27:04;16.20;;;8.73;;
6406;SDS011;3236;51.022;6.818;2024-01-07T10:29:32;14.20;;;8.68;;
6406;SDS011;3236;51.022;6.818;2024-01-07T10:32:00;17.20;;;9.68;;
6406;SDS011;3236;51.022;6.818;2024-01-07T10:34:30;16.60;;;9.15;;
6406;SDS011;3236;51.022;6.818;2024-01-07T10:36:58;19.45;;;10.90;;
6406;SDS011;3236;51.022;6.818;2024-01-07T10:39:27;17.25;;;9.88;;
6406;SDS011;3236;51.022;6.818;2024-01-07T10:41:55;14.90;;;9.40;;
6406;SDS011;3236;51.022;6.818;2024-01-07T10:44:24;18.70;;;11.15;;
6406;SDS011;3236;51.022;6.818;2024-01-07T10:46:53;20.73;;;12.07;;
6406;SDS011;3236;51.022;6.818;2024-01-07T10:49:22;19.48;;;10.75;;
6406;SDS011;3236;51.022;6.818;2024-01-07T10:51:53;16.33;;;8.57;;
6406;SDS011;3236;51.022;6.818;2024-01-07T10:54:34;14.52;;;8.85;;
6406;SDS011;3236;51.022;6.818;2024-01-07T10:57:04;20.02;;;12.57;;
6406;SDS011;3236;51.022;6.818;2024-01-07T10:59:37;21.20;;;11.80;;
6406;SDS011;3236;51.022;6.818;2024-01-07T11:02:06;19.55;;;11.65;;
6406;SDS011;3236;51.022;6.818;2024-01-07T11:04:37;24.13;;;12.55;;
6406;SDS011;3236;51.022;6.818;2024-01-07T11:07:14;26.05;;;13.75;;
6406;SDS011;3236;51.022;6.818;2024-01-07T11:09:50;20.80;;;11.55;;
6406;SDS011;3236;51.022;6.818;2024-01-07T11:12:26;18.65;;;11.80;;
6406;SDS011;3236;51.022;6.818;2024-01-07T11:14:54;22.40;;;12.85;;
6406;SDS011;3236;51.022;6.818;2024-01-07T11:17:40;20.25;;;10.23;;
6406;SDS011;3236;51.022;6.818;2024-01-07T11:20:12;19.42;;;12.10;;
6406;SDS011;3236;51.022;6.818;2024-01-07T11:22:44;17.38;;;10.48;;
6406;SDS011;3236;51.022;6.818;2024-01-07T11:28:04;14.82;;;8.85;;
6406;SDS011;3236;51.022;6.818;2024-01-07T11:30:33;14.15;;;8.95;;
6406;SDS011;3236;51.022;6.818;2024-01-07T11:33:06;16.35;;;9.50;;
6406;SDS011;3236;51.022;6.818;2024-01-07T11:38:23;19.00;;;10.07;;
6406;SDS011;3236;51.022;6.818;2024-01-07T11:40:51;16.88;;;8.23;;
6406;SDS011;3236;51.022;6.818;2024-01-07T11:43:19;15.00;;;8.10;;
6406;SDS011;3236;51.022;6.818;2024-01-07T11:45:46;15.35;;;9.00;;
6406;SDS011;3236;51.022;6.818;2024-01-07T11:48:15;14.55;;;7.63;;
6406;SDS011;3236;51.022;6.818;2024-01-07T11:50:42;16.55;;;9.32;;
6406;SDS011;3236;51.022;6.818;2024-01-07T11:53:11;19.23;;;10.30;;
6406;SDS011;3236;51.022;6.818;2024-01-07T11:55:39;9.73;;;6.65;;
6406;SDS011;3236;51.022;6.818;2024-01-07T11:58:08;13.25;;;6.50;;
6406;SDS011;3236;51.022;6.818;2024-01-07T12:00:36;9.13;;;5.72;;
6406;SDS011;3236;51.022;6.818;2024-01-07T12:03:03;14.85;;;8.30;;
6406;SDS011;3236;51.022;6.818;2024-01-07T12:05:31;16.55;;;8.93;;
6406;SDS011;3236;51.022;6.818;2024-01-07T12:08:01;13.93;;;8.15;;
6406;SDS011;3236;51.022;6.818;2024-01-07T12:10:28;15.45;;;7.00;;
6406;SDS011;3236;51.022;6.818;2024-01-07T12:12:56;15.20;;;8.93;;
6406;SDS011;3236;51.022;6.818;2024-01-07T12:15:25;18.45;;;8.82;;
6406;SDS011;3236;51.022;6.818;2024-01-07T12:17:59;15.90;;;8.23;;
6406;SDS011;3236;51.022;6.818;2024-01-07T12:20:26;14.82;;;7.25;;
6406;SDS011;3236;51.022;6.818;2024-01-07T12:22:57;11.20;;;6.80;;
6406;SDS011;3236;51.022;6.818;2024-01-07T12:25:31;10.18;;;4.95;;
6406;SDS011;3236;51.022;6.818;2024-01-07T12:27:58;17.08;;;7.85;;
6406;SDS011;3236;51.022;6.818;2024-01-07T12:30:28;15.38;;;8.80;;
6406;SDS011;3236;51.022;6.818;2024-01-07T12:32:56;13.82;;;7.30;;
6406;SDS011;3236;51.022;6.818;2024-01-07T12:35:24;12.25;;;7.65;;
6406;SDS011;3236;51.022;6.818;2024-01-07T12:37:52;14.27;;;8.23;;
6406;SDS011;3236;51.022;6.818;2024-01-07T12:40:23;7.35;;;4.65;;
6406;SDS011;3236;51.022;6.818;2024-01-07T12:42:52;13.20;;;7.82;;
6406;SDS011;3236;51.022;6.818;2024-01-07T12:45:19;10.10;;;6.57;;
6406;SDS011;3236;51.022;6.818;2024-01-07T12:47:48;12.70;;;6.15;;
6406;SDS011;3236;51.022;6.818;2024-01-07T12:50:15;12.35;;;6.03;;
6406;SDS011;3236;51.022;6.818;2024-01-07T12:52:43;12.15;;;7.05;;
6406;SDS011;3236;51.022;6.818;2024-01-07T12:55:17;14.35;;;7.35;;
6406;SDS011;3236;51.022;6.818;2024-01-07T12:57:44;11.95;;;7.38;;
6406;SDS011;3236;51.022;6.818;2024-01-07T13:00:11;12.60;;;6.13;;
6406;SDS011;3236;51.022;6.818;2024-01-07T13:02:39;10.10;;;6.03;;
6406;SDS011;3236;51.022;6.818;2024-01-07T13:05:08;9.70;;;5.97;;
6406;SDS011;3236;51.022;6.818;2024-01-07T13:07:36;6.45;;;4.53;;
6406;SDS011;3236;51.022;6.818;2024-01-07T13:10:03;8.43;;;5.32;;
6406;SDS011;3236;51.022;6.818;2024-01-07T13:12:32;8.05;;;4.97;;
6406;SDS011;3236;51.022;6.818;2024-01-07T13:14:59;4.35;;;3.40;;
6406;SDS011;3236;51.022;6.818;2024-01-07T13:17:29;11.70;;;6.45;;
6406;SDS011;3236;51.022;6.818;2024-01-07T13:19:59;7.32;;;5.00;;
6406;SDS011;3236;51.022;6.818;2024-01-07T13:22:28;8.45;;;4.57;;
6406;SDS011;3236;51.022;6.818;2024-01-07T13:24:55;5.60;;;4.18;;
6406;SDS011;3236;51.022;6.818;2024-01-07T13:27:22;5.63;;;4.05;;
6406;SDS011;3236;51.022;6.818;2024-01-07T13:29:49;11.32;;;5.38;;
6406;SDS011;3236;51.022;6.818;2024-01-07T13:32:25;8.38;;;4.88;;
6406;SDS011;3236;51.022;6.818;2024-01-07T13:34:53;6.82;;;4.53;;
6406;SDS011;3236;51.022;6.818;2024-01-07T13:37:20;8.75;;;5.15;;
6406;SDS011;3236;51.022;6.818;2024-01-07T13:39:48;9.15;;;5.22;;
6406;SDS011;3236;51.022;6.818;2024-01-07T13:42:16;8.35;;;5.47;;
6406;SDS011;3236;51.022;6.818;2024-01-07T13:44:43;8.77;;;5.07;;
6406;SDS011;3236;51.022;6.818;2024-01-07T13:47:15;8.60;;;5.32;;
6406;SDS011;3236;51.022;6.818;2024-01-07T13:49:42;8.02;;;4.85;;
6406;SDS011;3236;51.022;6.818;2024-01-07T13:52:13;7.72;;;4.65;;
6406;SDS011;3236;51.022;6.818;2024-01-07T13:54:41;6.32;;;3.55;;
6406;SDS011;3236;51.022;6.818;2024-01-07T13:57:10;6.13;;;2.95;;
6406;SDS011;3236;51.022;6.818;2024-01-07T13:59:38;7.15;;;5.07;;
6406;SDS011;3236;51.022;6.818;2024-01-07T14:02:05;8.52;;;4.13;;
6406;SDS011;3236;51.022;6.818;2024-01-07T14:04:33;8.95;;;5.55;;
6406;SDS011;3236;51.022;6.818;2024-01-07T14:07:00;6.07;;;4.25;;
6406;SDS011;3236;51.022;6.818;2024-01-07T14:09:28;5.38;;;3.72;;
6406;SDS011;3236;51.022;6.818;2024-01-07T14:11:56;6.72;;;4.57;;
6406;SDS011;3236;51.022;6.818;2024-01-07T14:14:28;6.50;;;4.88;;
6406;SDS011;3236;51.022;6.818;2024-01-07T14:19:25;6.75;;;4.18;;
6406;SDS011;3236;51.022;6.818;2024-01-07T14:21:52;7.35;;;4.55;;
6406;SDS011;3236;51.022;6.818;2024-01-07T14:24:21;15.05;;;8.77;;
6406;SDS011;3236;51.022;6.818;2024-01-07T14:26:48;6.57;;;4.35;;
6406;SDS011;3236;51.022;6.818;2024-01-07T14:29:15;8.82;;;5.22;;
6406;SDS011;3236;51.022;6.818;2024-01-07T14:31:44;5.60;;;2.90;;
6406;SDS011;3236;51.022;6.818;2024-01-07T14:34:13;7.95;;;3.65;;
6406;SDS011;3236;51.022;6.818;2024-01-07T14:36:41;8.90;;;4.25;;
6406;SDS011;3236;51.022;6.818;2024-01-07T14:39:08;10.80;;;5.05;;
6406;SDS011;3236;51.022;6.818;2024-01-07T14:41:36;10.18;;;5.25;;
6406;SDS011;3236;51.022;6.818;2024-01-07T14:44:03;9.95;;;5.15;;
6406;SDS011;3236;51.022;6.818;2024-01-07T14:46:30;8.35;;;4.55;;
6406;SDS011;3236;51.022;6.818;2024-01-07T14:48:59;7.47;;;4.40;;
6406;SDS011;3236;51.022;6.818;2024-01-07T14:51:32;6.20;;;4.22;;
6406;SDS011;3236;51.022;6.818;2024-01-07T14:53:59;6.13;;;4.22;;
6406;SDS011;3236;51.022;6.818;2024-01-07T14:56:30;5.07;;;2.83;;
6406;SDS011;3236;51.022;6.818;2024-01-07T14:58:58;4.38;;;2.92;;
6406;SDS011;3236;51.022;6.818;2024-01-07T15:01:25;3.58;;;2.80;;
6406;SDS011;3236;51.022;6.818;2024-01-07T15:03:52;2.17;;;1.85;;
6406;SDS011;3236;51.022;6.818;2024-01-07T15:06:21;4.55;;;3.17;;
6406;SDS011;3236;51.022;6.818;2024-01-07T15:08:48;5.53;;;3.15;;
6406;SDS011;3236;51.022;6.818;2024-01-07T15:11:16;5.55;;;3.45;;
6406;SDS011;3236;51.022;6.818;2024-01-07T15:13:46;5.90;;;4.00;;